createdAt,value
2022-11-05T00:01:16.511Z,4.90
2022-11-05T00:04:05.006Z,6.00
2022-11-05T00:06:53.293Z,6.70
2022-11-05T00:09:32.940Z,6.70
2022-11-05T00:12:23.658Z,6.50
2022-11-05T00:15:12.451Z,12.50
2022-11-05T00:17:43.498Z,8.00
2022-11-05T00:20:14.558Z,6.30
2022-11-05T00:23:02.881Z,4.20
2022-11-05T00:25:33.350Z,7.20
2022-11-05T00:28:05.039Z,5.70
2022-11-05T00:30:35.533Z,6.50
2022-11-05T00:33:05.932Z,7.30
2022-11-05T00:35:36.568Z,8.60
2022-11-05T00:38:07.187Z,7.90
2022-11-05T00:40:38.584Z,7.10
2022-11-05T00:43:26.680Z,7.20
2022-11-05T00:45:57.715Z,6.20
2022-11-05T00:48:45.638Z,7.70
2022-11-05T00:51:16.038Z,7.90
2022-11-05T00:53:46.759Z,7.20
2022-11-05T00:56:17.502Z,7.40
2022-11-05T00:58:48.823Z,9.20
2022-11-05T01:01:19.271Z,8.00
2022-11-05T01:03:51.944Z,8.70
2022-11-05T01:06:23.066Z,7.90
2022-11-05T01:08:53.453Z,8.20
2022-11-05T01:11:34.031Z,7.10
2022-11-05T01:14:07.667Z,4.80
2022-11-05T01:16:39.420Z,8.20
2022-11-05T01:19:11.436Z,6.40
2022-11-05T01:21:42.321Z,8.20
2022-11-05T01:24:13.892Z,7.10
2022-11-05T01:26:44.247Z,9.30
2022-11-05T01:29:14.711Z,8.50
2022-11-05T01:31:45.560Z,7.50
2022-11-05T01:34:16.669Z,6.70
2022-11-05T01:36:47.473Z,8.70
2022-11-05T01:39:18.230Z,7.40
2022-11-05T01:41:49.349Z,6.50
2022-11-05T01:44:55.899Z,5.40
2022-11-05T01:47:39.846Z,6.60
2022-11-05T01:50:23.943Z,7.30
2022-11-05T01:53:00.382Z,10.80
2022-11-05T01:55:36.415Z,7.60
2022-11-05T01:58:10.538Z,8.80
2022-11-05T02:00:42.555Z,9.00
2022-11-05T02:03:15.912Z,9.50
2022-11-05T02:05:47.381Z,7.70
2022-11-05T02:08:25.440Z,7.10
2022-11-05T02:10:56.291Z,10.20
2022-11-05T02:13:26.686Z,8.30
2022-11-05T02:16:04.170Z,5.20
2022-11-05T02:18:44.075Z,8.70
2022-11-05T02:24:46.126Z,7.60
2022-11-05T02:27:34.804Z,6.80
2022-11-05T02:30:12.135Z,7.10
2022-11-05T02:33:03.420Z,7.10
2022-11-05T02:36:01.993Z,6.80
2022-11-05T02:38:44.203Z,6.40
2022-11-05T02:41:24.639Z,9.50
2022-11-05T02:44:11.392Z,5.80
2022-11-05T02:46:50.804Z,6.50
2022-11-05T02:49:33.314Z,5.30
2022-11-05T02:52:10.527Z,5.50
2022-11-05T02:54:45.237Z,5.30
2022-11-05T02:57:15.752Z,7.20
2022-11-05T02:59:46.477Z,7.60
2022-11-05T03:02:17.374Z,5.70
2022-11-05T03:04:48.040Z,6.00
2022-11-05T03:07:32.280Z,6.60
2022-11-05T03:10:17.481Z,4.60
2022-11-05T03:12:59.816Z,6.00
2022-11-05T03:15:42.845Z,10.30
2022-11-05T03:18:23.496Z,7.60
2022-11-05T03:21:01.970Z,5.80
2022-11-05T03:23:39.808Z,6.50
2022-11-05T03:26:17.679Z,4.70
2022-11-05T03:28:54.191Z,7.50
2022-11-05T03:31:26.757Z,4.70
2022-11-05T03:33:59.331Z,6.50
2022-11-05T03:36:33.311Z,7.40
2022-11-05T03:39:08.375Z,5.80
2022-11-05T03:41:43.352Z,7.20
2022-11-05T03:44:17.535Z,5.30
2022-11-05T03:46:51.135Z,5.20
2022-11-05T03:49:26.339Z,5.90
2022-11-05T03:52:03.083Z,6.90
2022-11-05T03:54:34.567Z,10.80
2022-11-05T03:57:09.882Z,5.80
2022-11-05T03:59:45.063Z,5.40
2022-11-05T04:02:17.426Z,5.10
2022-11-05T04:04:48.136Z,7.00
2022-11-05T04:07:35.835Z,7.80
2022-11-05T04:10:39.505Z,5.10
2022-11-05T04:13:27.946Z,5.40
2022-11-05T04:16:16.996Z,4.40
2022-11-05T04:18:47.377Z,5.40
2022-11-05T04:21:35.197Z,6.30
2022-11-05T04:26:43.623Z,3.60
2022-11-05T04:29:32.046Z,5.70
2022-11-05T04:32:02.359Z,7.50
2022-11-05T04:34:33.327Z,6.60
2022-11-05T04:37:03.671Z,6.10
2022-11-05T04:39:34.109Z,6.50
2022-11-05T04:42:04.599Z,6.20
2022-11-05T04:44:35.210Z,5.60
2022-11-05T04:47:05.878Z,8.80
2022-11-05T04:49:36.428Z,4.60
2022-11-05T04:52:06.932Z,5.60
2022-11-05T04:54:37.314Z,6.30
2022-11-05T04:57:07.734Z,4.80
2022-11-05T04:59:38.092Z,6.70
2022-11-05T05:02:08.800Z,4.10
2022-11-05T05:04:39.327Z,4.20
2022-11-05T05:07:10.340Z,5.20
2022-11-05T05:09:40.794Z,4.60
2022-11-05T05:12:11.445Z,5.40
2022-11-05T05:14:42.172Z,5.40
2022-11-05T05:17:13.247Z,5.20
2022-11-05T05:20:01.112Z,6.70
2022-11-05T05:25:00.880Z,3.80
2022-11-05T05:27:32.055Z,5.00
2022-11-05T05:30:03.434Z,4.10
2022-11-05T05:32:34.200Z,6.10
2022-11-05T05:35:04.724Z,8.40
2022-11-05T05:37:35.695Z,5.60
2022-11-05T05:40:06.487Z,5.80
2022-11-05T05:42:42.670Z,5.40
2022-11-05T05:45:14.011Z,5.90
2022-11-05T05:47:44.750Z,6.90
2022-11-05T05:50:15.502Z,5.70
2022-11-05T05:52:46.155Z,4.90
2022-11-05T05:55:16.596Z,3.70
2022-11-05T05:57:47.304Z,10.90
2022-11-05T06:00:18.756Z,6.20
2022-11-05T06:02:49.549Z,6.20
2022-11-05T06:05:20.624Z,7.20
2022-11-05T06:07:57.881Z,8.30
2022-11-05T06:10:28.669Z,5.80
2022-11-05T06:13:01.342Z,6.10
2022-11-05T06:15:35.929Z,8.20
2022-11-05T06:18:06.928Z,6.00
2022-11-05T06:20:37.360Z,5.80
2022-11-05T06:23:08.355Z,8.50
2022-11-05T06:25:41.347Z,6.30
2022-11-05T06:28:12.572Z,6.30
2022-11-05T06:30:43.506Z,6.60
2022-11-05T06:33:14.364Z,5.80
2022-11-05T06:35:44.836Z,8.70
2022-11-05T06:38:15.259Z,7.90
2022-11-05T06:40:45.631Z,5.40
2022-11-05T06:43:16.142Z,6.20
2022-11-05T06:45:46.879Z,5.10
2022-11-05T06:48:17.722Z,5.10
2022-11-05T06:50:48.427Z,8.50
2022-11-05T06:53:19.733Z,9.20
2022-11-05T06:55:50.476Z,6.10
2022-11-05T06:58:21.020Z,6.60
2022-11-05T07:00:51.803Z,4.60
2022-11-05T07:03:22.241Z,5.00
2022-11-05T07:05:53.716Z,3.80
2022-11-05T07:08:24.245Z,3.90
2022-11-05T07:10:54.707Z,4.10
2022-11-05T07:13:25.135Z,7.30
2022-11-05T07:15:55.570Z,8.70
2022-11-05T07:18:26.357Z,7.70
2022-11-05T07:20:57.063Z,6.40
2022-11-05T07:23:27.737Z,9.10
2022-11-05T07:26:00.534Z,6.60
2022-11-05T07:28:31.415Z,5.50
2022-11-05T07:31:02.509Z,6.80
2022-11-05T07:33:36.531Z,5.10
2022-11-05T07:36:09.376Z,4.20
2022-11-05T07:38:40.097Z,6.00
2022-11-05T07:41:10.864Z,7.10
2022-11-05T07:43:42.213Z,4.90
2022-11-05T07:46:14.028Z,5.00
2022-11-05T07:48:44.850Z,5.20
2022-11-05T07:51:15.631Z,4.60
2022-11-05T07:53:48.218Z,6.60
2022-11-05T07:56:19.133Z,5.30
2022-11-05T07:58:49.664Z,6.10
2022-11-05T08:01:20.284Z,6.30
2022-11-05T08:03:51.244Z,7.50
2022-11-05T08:06:21.989Z,4.80
2022-11-05T08:08:52.479Z,6.70
2022-11-05T08:11:23.457Z,9.80
2022-11-05T08:13:53.835Z,4.80
2022-11-05T08:16:24.266Z,7.80
2022-11-05T08:18:54.766Z,11.00
2022-11-05T08:21:25.257Z,8.40
2022-11-05T08:23:56.603Z,6.40
2022-11-05T08:26:27.094Z,5.30
2022-11-05T08:28:57.888Z,7.90
2022-11-05T08:31:29.430Z,6.20
2022-11-05T08:34:02.702Z,9.50
2022-11-05T08:36:33.364Z,7.30
2022-11-05T08:39:04.254Z,10.20
2022-11-05T08:41:34.995Z,8.30
2022-11-05T08:44:05.663Z,8.40
2022-11-05T08:46:41.400Z,9.10
2022-11-05T08:49:12.404Z,7.20
2022-11-05T08:51:44.301Z,7.30
2022-11-05T08:54:15.215Z,8.40
2022-11-05T08:56:45.633Z,8.70
2022-11-05T08:59:16.081Z,9.10
2022-11-05T09:01:47.319Z,13.80
2022-11-05T09:04:17.847Z,6.30
2022-11-05T09:06:48.552Z,7.40
2022-11-05T09:09:19.002Z,7.80
2022-11-05T09:12:10.998Z,5.50
2022-11-05T09:14:40.336Z,12.80
2022-11-05T09:17:19.670Z,6.60
2022-11-05T09:19:50.323Z,7.40
2022-11-05T09:22:21.029Z,5.50
2022-11-05T09:24:51.430Z,8.80
2022-11-05T09:27:22.197Z,8.30
2022-11-05T09:29:52.548Z,9.50
2022-11-05T09:32:23.296Z,9.30
2022-11-05T09:34:53.734Z,11.00
2022-11-05T09:37:24.182Z,8.80
2022-11-05T09:39:55.219Z,7.40
2022-11-05T09:42:30.978Z,6.40
2022-11-05T09:45:05.314Z,10.20
2022-11-05T09:47:41.843Z,10.60
2022-11-05T09:50:19.967Z,6.70
2022-11-05T09:52:50.520Z,6.30
2022-11-05T09:55:27.837Z,13.70
2022-11-05T09:58:00.640Z,6.30
2022-11-05T10:00:32.509Z,6.50
2022-11-05T10:03:08.069Z,4.50
2022-11-05T10:05:41.402Z,5.90
2022-11-05T10:08:19.308Z,7.50
2022-11-05T10:10:54.856Z,6.60
2022-11-05T10:13:30.860Z,6.50
2022-11-05T10:16:05.059Z,7.20
2022-11-05T10:18:38.263Z,8.60
2022-11-05T10:21:15.647Z,8.40
2022-11-05T10:23:47.142Z,5.40
2022-11-05T10:26:22.184Z,8.60
2022-11-05T10:28:53.942Z,5.40
2022-11-05T10:31:25.116Z,7.60
2022-11-05T10:34:01.911Z,6.50
2022-11-05T10:36:35.423Z,7.50
2022-11-05T10:39:12.137Z,6.90
2022-11-05T10:42:02.090Z,6.00
2022-11-05T10:44:38.784Z,7.80
2022-11-05T10:47:36.231Z,5.90
2022-11-05T10:50:11.007Z,5.80
2022-11-05T10:52:46.922Z,8.90
2022-11-05T10:55:21.948Z,5.30
2022-11-05T10:57:52.896Z,5.00
2022-11-05T11:00:30.013Z,9.00
2022-11-05T11:03:03.107Z,6.10
2022-11-05T11:05:40.228Z,8.00
2022-11-05T11:08:26.688Z,4.70
2022-11-05T11:11:00.382Z,6.50
2022-11-05T11:13:47.274Z,5.20
2022-11-05T11:16:21.335Z,9.60
2022-11-05T11:18:56.544Z,5.40
2022-11-05T11:21:27.816Z,6.10
2022-11-05T11:24:00.520Z,4.90
2022-11-05T11:26:33.805Z,6.70
2022-11-05T11:29:09.350Z,4.40
2022-11-05T11:31:42.662Z,5.90
2022-11-05T11:34:23.306Z,3.80
2022-11-05T11:37:02.667Z,5.40
2022-11-05T11:39:34.487Z,7.80
2022-11-05T11:42:11.178Z,4.40
2022-11-05T11:44:47.664Z,6.40
2022-11-05T11:47:20.508Z,5.90
2022-11-05T11:49:54.254Z,5.00
2022-11-05T11:52:31.211Z,8.00
2022-11-05T11:55:21.373Z,4.90
2022-11-05T11:57:54.021Z,3.40
2022-11-05T12:00:27.058Z,4.50
2022-11-05T12:03:23.652Z,3.90
2022-11-05T12:06:04.736Z,3.90
2022-11-05T12:08:56.529Z,4.10
2022-11-05T12:11:36.064Z,6.90
2022-11-05T12:14:18.472Z,6.10
2022-11-05T12:17:10.807Z,5.10
2022-11-05T12:19:58.730Z,8.40
2022-11-05T12:22:36.667Z,5.50
2022-11-05T12:25:19.379Z,7.10
2022-11-05T12:28:11.328Z,6.60
2022-11-05T12:30:53.779Z,4.30
2022-11-05T12:33:34.875Z,7.20
2022-11-05T12:36:22.627Z,6.20
2022-11-05T12:41:35.142Z,4.80
2022-11-05T12:44:21.663Z,5.60
2022-11-05T12:47:05.088Z,9.50
2022-11-05T12:49:52.331Z,6.90
2022-11-05T12:52:39.751Z,5.70
2022-11-05T12:55:16.161Z,7.70
2022-11-05T12:57:50.213Z,4.60
2022-11-05T13:00:23.184Z,5.10
2022-11-05T13:02:57.809Z,6.70
2022-11-05T13:05:36.220Z,5.30
2022-11-05T13:08:10.113Z,6.00
2022-11-05T13:10:45.686Z,6.50
2022-11-05T13:13:34.890Z,4.50
2022-11-05T13:16:11.415Z,3.20
2022-11-05T13:18:47.091Z,3.70
2022-11-05T13:21:19.035Z,4.90
2022-11-05T13:23:54.342Z,4.20
2022-11-05T13:26:28.385Z,3.80
2022-11-05T13:29:05.996Z,6.90
2022-11-05T13:31:41.206Z,4.40
2022-11-05T13:34:14.128Z,4.20
2022-11-05T13:37:10.342Z,7.10
2022-11-05T13:39:48.307Z,3.30
2022-11-05T13:42:49.225Z,4.30
2022-11-05T13:46:06.251Z,5.90
2022-11-05T13:51:56.728Z,4.70
2022-11-05T13:55:17.824Z,5.40
2022-11-05T13:58:04.931Z,4.60
2022-11-05T14:00:43.092Z,4.30
2022-11-05T14:03:21.180Z,4.70
2022-11-05T14:05:59.475Z,5.50
2022-11-05T14:08:31.302Z,4.80
2022-11-05T14:11:04.664Z,3.90
2022-11-05T14:13:39.152Z,5.50
2022-11-05T14:16:17.783Z,4.50
2022-11-05T14:18:53.344Z,3.20
2022-11-05T14:21:47.377Z,4.50
2022-11-05T14:24:43.073Z,4.10
2022-11-05T14:27:52.206Z,7.00
2022-11-05T14:30:44.872Z,5.40
2022-11-05T14:33:33.180Z,4.90
2022-11-05T14:36:34.977Z,8.70
2022-11-05T14:39:23.891Z,5.90
2022-11-05T14:42:17.584Z,5.20
2022-11-05T14:45:04.446Z,6.60
2022-11-05T14:47:38.366Z,4.70
2022-11-05T14:50:19.474Z,5.70
2022-11-05T14:52:55.895Z,4.10
2022-11-05T14:55:34.178Z,5.50
2022-11-05T14:58:25.318Z,6.00
2022-11-05T15:00:56.932Z,4.70
2022-11-05T15:03:52.591Z,4.50
2022-11-05T15:06:29.238Z,3.60
2022-11-05T15:09:22.307Z,4.80
2022-11-05T15:12:03.860Z,8.60
2022-11-05T15:14:40.705Z,5.80
2022-11-05T15:17:18.823Z,5.40
2022-11-05T15:19:50.474Z,9.70
2022-11-05T15:22:30.386Z,8.40
2022-11-05T15:25:01.889Z,6.70
2022-11-05T15:27:51.931Z,3.90
2022-11-05T15:30:26.356Z,4.50
2022-11-05T15:33:08.814Z,7.00
2022-11-05T15:35:42.485Z,6.50
2022-11-05T15:38:36.156Z,8.40
2022-11-05T15:41:15.902Z,8.00
2022-11-05T15:43:48.688Z,6.60
2022-11-05T15:46:21.554Z,6.50
2022-11-05T15:48:54.368Z,5.00
2022-11-05T15:51:26.519Z,9.90
2022-11-05T15:54:24.327Z,7.10
2022-11-05T15:56:55.971Z,7.50
2022-11-05T15:59:29.238Z,8.30
2022-11-05T16:02:05.779Z,6.60
2022-11-05T16:04:37.372Z,10.10
2022-11-05T16:07:13.187Z,10.20
2022-11-05T16:09:53.990Z,7.60
2022-11-05T16:12:33.670Z,8.80
2022-11-05T16:15:19.493Z,8.30
2022-11-05T16:17:53.435Z,9.20
2022-11-05T16:20:29.628Z,18.00
2022-11-05T16:23:02.453Z,26.20
2022-11-05T16:25:38.950Z,32.70
2022-11-05T16:28:23.124Z,20.70
2022-11-05T16:31:02.295Z,17.60
2022-11-05T16:33:41.094Z,17.70
2022-11-05T16:36:12.263Z,12.80
2022-11-05T16:38:43.063Z,17.90
2022-11-05T16:41:18.375Z,17.80
2022-11-05T16:43:55.943Z,13.80
2022-11-05T16:46:29.640Z,6.80
2022-11-05T16:49:00.060Z,6.60
2022-11-05T16:51:31.600Z,10.60
2022-11-05T16:54:02.290Z,7.70
2022-11-05T16:56:33.589Z,9.00
2022-11-05T16:59:05.136Z,5.90
2022-11-05T17:01:38.182Z,6.80
2022-11-05T17:04:09.614Z,5.80
2022-11-05T17:06:40.223Z,18.20
2022-11-05T17:09:10.612Z,45.60
2022-11-05T17:11:41.811Z,44.70
2022-11-05T17:14:13.968Z,22.40
2022-11-05T17:16:44.350Z,11.80
2022-11-05T17:19:17.619Z,11.80
2022-11-05T17:21:49.991Z,8.60
2022-11-05T17:24:20.498Z,10.80
2022-11-05T17:26:51.004Z,7.30
2022-11-05T17:29:21.512Z,8.70
2022-11-05T17:31:52.306Z,20.20
2022-11-05T17:34:22.630Z,14.30
2022-11-05T17:36:53.078Z,9.30
2022-11-05T17:39:28.730Z,11.10
2022-11-05T17:42:01.844Z,11.60
2022-11-05T17:44:33.079Z,11.20
2022-11-05T17:47:04.059Z,10.50
2022-11-05T17:49:34.491Z,7.90
2022-11-05T17:52:05.522Z,7.70
2022-11-05T17:54:35.916Z,9.00
2022-11-05T17:57:06.883Z,7.90
2022-11-05T17:59:37.822Z,6.90
2022-11-05T18:02:10.302Z,8.50
2022-11-05T18:04:41.767Z,6.60
2022-11-05T18:07:16.924Z,26.80
2022-11-05T18:09:48.203Z,11.90
2022-11-05T18:12:19.683Z,8.30
2022-11-05T18:14:51.266Z,8.90
2022-11-05T18:17:21.956Z,7.10
2022-11-05T18:19:52.870Z,6.30
2022-11-05T18:22:23.451Z,5.10
2022-11-05T18:24:54.023Z,6.00
2022-11-05T18:27:27.609Z,5.50
2022-11-05T18:29:58.070Z,5.10
2022-11-05T18:32:29.004Z,6.50
2022-11-05T18:34:59.787Z,5.10
2022-11-05T18:37:30.936Z,5.40
2022-11-05T18:40:01.458Z,6.10
2022-11-05T18:42:31.983Z,6.20
2022-11-05T18:45:02.918Z,7.10
2022-11-05T18:47:34.176Z,7.00
2022-11-05T18:50:05.812Z,7.20
2022-11-05T18:52:36.371Z,6.40
2022-11-05T18:55:08.576Z,10.50
2022-11-05T18:57:41.752Z,10.80
2022-11-05T19:00:14.676Z,8.60
2022-11-05T19:02:45.539Z,7.40
2022-11-05T19:05:32.176Z,6.10
2022-11-05T19:08:03.047Z,8.00
2022-11-05T19:10:33.971Z,6.40
2022-11-05T19:13:04.781Z,6.20
2022-11-05T19:15:35.483Z,9.10
2022-11-05T19:18:06.481Z,6.10
2022-11-05T19:20:38.020Z,5.90
2022-11-05T19:23:08.691Z,8.80
2022-11-05T19:25:40.519Z,5.30
2022-11-05T19:28:12.420Z,5.00
2022-11-05T19:30:43.064Z,6.20
2022-11-05T19:33:13.676Z,6.70
2022-11-05T19:35:44.328Z,6.80
2022-11-05T19:38:15.288Z,6.50
2022-11-05T19:40:46.000Z,6.10
2022-11-05T19:43:16.797Z,7.40
2022-11-05T19:45:48.003Z,8.10
2022-11-05T19:48:20.067Z,5.70
2022-11-05T19:50:50.785Z,5.20
2022-11-05T19:53:21.234Z,6.90
2022-11-05T19:55:51.995Z,5.50
2022-11-05T19:58:22.499Z,4.20
2022-11-05T20:00:55.876Z,5.00
2022-11-05T20:03:26.690Z,4.80
2022-11-05T20:06:02.396Z,5.90
2022-11-05T20:08:37.050Z,5.30
2022-11-05T20:11:18.840Z,5.90
2022-11-05T20:13:49.726Z,6.80
2022-11-05T20:16:25.420Z,7.40
2022-11-05T20:18:56.396Z,4.90
2022-11-05T20:21:27.142Z,6.90
2022-11-05T20:23:59.388Z,6.80
2022-11-05T20:26:30.129Z,4.60
2022-11-05T20:29:01.228Z,4.50
2022-11-05T20:31:31.914Z,5.20
2022-11-05T20:34:02.707Z,3.90
2022-11-05T20:36:33.575Z,4.90
2022-11-05T20:39:05.678Z,4.10
2022-11-05T20:41:36.259Z,4.90
2022-11-05T20:44:07.032Z,6.30
2022-11-05T20:46:37.399Z,7.90
2022-11-05T20:49:08.375Z,7.20
2022-11-05T20:51:38.856Z,5.90
2022-11-05T20:54:10.282Z,4.40
2022-11-05T20:56:40.948Z,5.00
2022-11-05T20:59:12.400Z,6.20
2022-11-05T21:01:43.933Z,6.50
2022-11-05T21:04:25.778Z,5.20
2022-11-05T21:06:56.214Z,4.50
2022-11-05T21:09:27.562Z,5.40
2022-11-05T21:12:14.989Z,5.00
2022-11-05T21:14:46.887Z,6.60
2022-11-05T21:17:19.534Z,6.90
2022-11-05T21:19:51.598Z,4.90
2022-11-05T21:22:22.087Z,3.50
2022-11-05T21:24:52.555Z,5.40
2022-11-05T21:27:23.231Z,5.50
2022-11-05T21:29:53.885Z,7.40
2022-11-05T21:32:24.334Z,4.90
2022-11-05T21:34:55.605Z,5.80
2022-11-05T21:37:26.717Z,5.00
2022-11-05T21:39:57.143Z,3.50
2022-11-05T21:42:29.560Z,7.20
2022-11-05T21:45:00.883Z,6.80
2022-11-05T21:47:31.387Z,6.30
2022-11-05T21:50:02.683Z,4.80
2022-11-05T21:52:51.725Z,3.60
2022-11-05T21:55:40.168Z,4.40
2022-11-05T21:58:32.351Z,3.70
2022-11-05T22:01:04.446Z,3.50
2022-11-05T22:03:35.000Z,3.40
2022-11-05T22:06:05.922Z,4.50
2022-11-05T22:08:36.411Z,3.20
2022-11-05T22:11:07.283Z,3.50
2022-11-05T22:13:37.694Z,4.00
2022-11-05T22:16:09.981Z,4.40
2022-11-05T22:18:40.798Z,5.90
2022-11-05T22:21:15.804Z,3.00
2022-11-05T22:23:46.920Z,6.60
2022-11-05T22:26:17.658Z,4.40
2022-11-05T22:28:48.241Z,3.70
2022-11-05T22:31:19.316Z,7.60
2022-11-05T22:33:50.355Z,5.20
2022-11-05T22:36:21.024Z,3.70
2022-11-05T22:38:52.044Z,3.60
2022-11-05T22:41:23.734Z,3.70
2022-11-05T22:43:55.789Z,3.90
2022-11-05T22:46:27.935Z,3.30
2022-11-05T22:48:59.179Z,5.10
2022-11-05T22:51:31.805Z,3.30
2022-11-05T22:54:03.210Z,4.60
2022-11-05T22:56:38.572Z,3.90
2022-11-05T22:59:12.053Z,4.60
2022-11-05T23:01:43.326Z,3.30
2022-11-05T23:04:15.105Z,3.80
2022-11-05T23:07:03.285Z,3.00
2022-11-05T23:09:53.601Z,4.30
2022-11-05T23:12:27.420Z,3.50
2022-11-05T23:14:59.644Z,3.90
2022-11-05T23:17:48.658Z,2.60
2022-11-05T23:20:39.982Z,3.70
2022-11-05T23:23:30.382Z,3.20
2022-11-05T23:26:21.600Z,3.60
2022-11-05T23:28:52.088Z,4.80
2022-11-05T23:31:40.179Z,5.20
2022-11-05T23:34:10.610Z,2.70
2022-11-05T23:36:58.976Z,4.30
2022-11-05T23:39:29.432Z,4.80
2022-11-05T23:42:17.845Z,4.50
2022-11-05T23:45:10.326Z,3.60
2022-11-05T23:48:01.799Z,3.00
2022-11-05T23:50:37.095Z,3.20
2022-11-05T23:55:40.513Z,2.60
2022-11-05T23:58:12.667Z,4.70
